Time;durP1;ratioP1;P1;durP2;ratioP2;P2;SDS_P1;SDS_P2;PMS_P1;PMS_P2;Temp;Humidity;BMP_temperature;BMP_pressure;BME280_temperature;BME280_humidity;BME280_pressure;Samples;Min_cycle;Max_cycle;Signal;HPM_P1;HPM_P2
2021/03/31 00:01:46;;;;;;;9.40;5.20;;;10.20;59.90;;;;;;6227803;23;20340;-63
2021/03/31 00:04:12;;;;;;;9.07;5.00;;;9.90;60.10;;;;;;6229851;23;20103;-63
2021/03/31 00:06:37;;;;;;;10.50;5.88;;;9.40;61.50;;;;;;6232380;23;20064;-62
2021/03/31 00:09:03;;;;;;;8.95;5.35;;;9.00;61.80;;;;;;6236713;23;19992;-63
2021/03/31 00:11:29;;;;;;;12.60;5.32;;;9.50;62.50;;;;;;6225104;23;20008;-63
2021/03/31 00:13:54;;;;;;;10.48;5.00;;;9.50;60.90;;;;;;6200903;23;20292;-63
2021/03/31 00:16:20;;;;;;;10.85;5.63;;;9.40;62.20;;;;;;6224233;23;20014;-63
2021/03/31 00:18:45;;;;;;;13.95;4.95;;;9.40;61.80;;;;;;6224886;23;20006;-62
2021/03/31 00:21:11;;;;;;;9.40;5.40;;;9.20;63.20;;;;;;6196438;23;20000;-63
2021/03/31 00:23:36;;;;;;;10.70;5.20;;;8.80;63.30;;;;;;6224415;23;20005;-63
2021/03/31 00:26:02;;;;;;;11.75;4.82;;;8.90;62.80;;;;;;6227661;23;20059;-63
2021/03/31 00:28:28;;;;;;;10.43;5.30;;;8.80;63.40;;;;;;6231011;23;20020;-63
2021/03/31 00:30:53;;;;;;;8.18;4.18;;;9.60;62.70;;;;;;6233131;23;20001;-62
2021/03/31 00:33:19;;;;;;;8.02;4.68;;;9.60;61.70;;;;;;6235349;23;20000;-62
2021/03/31 00:35:45;;;;;;;7.47;4.78;;;9.70;61.70;;;;;;6238357;23;20047;-63
2021/03/31 00:38:10;;;;;;;8.65;5.18;;;9.40;63.30;;;;;;6226215;23;20012;-63
2021/03/31 00:40:41;;;;;;;7.93;5.13;;;9.10;63.20;;;;;;6230146;23;20015;-62
2021/03/31 00:43:07;;;;;;;;;;;9.50;62.70;;;;;;6233054;23;20028;-63
2021/03/31 00:45:33;;;;;;;9.35;4.80;;;9.50;62.20;;;;;;6226457;23;19907;-62
2021/03/31 00:47:58;;;;;;;7.28;4.30;;;9.40;62.30;;;;;;6238438;23;19996;-62
2021/03/31 00:50:24;;;;;;;10.63;4.40;;;9.50;61.40;;;;;;6200782;23;20011;-63
2021/03/31 00:52:51;;;;;;;9.50;4.47;;;9.40;62.20;;;;;;6228781;23;20013;-62
2021/03/31 00:55:18;;;;;;;8.90;4.53;;;9.10;63.30;;;;;;6231143;23;20005;-63
2021/03/31 00:57:44;;;;;;;11.18;4.78;;;8.90;64.30;;;;;;6199821;23;20005;-63
2021/03/31 01:00:10;;;;;;;10.43;4.35;;;9.60;62.80;;;;;;6211577;23;20008;-63
2021/03/31 01:02:36;;;;;;;8.48;5.03;;;9.80;62.00;;;;;;6196390;23;20028;-63
2021/03/31 01:05:08;;;;;;;7.95;4.57;;;9.70;62.40;;;;;;6221430;23;20008;-63
2021/03/31 01:07:33;;;;;;;10.23;4.90;;;9.60;61.60;;;;;;6226087;23;20005;-63
2021/03/31 01:09:59;;;;;;;8.38;4.40;;;9.30;62.00;;;;;;6232542;23;20020;-62
2021/03/31 01:12:43;;;;;;;8.15;4.20;;;9.30;62.90;;;;;;6234762;23;20173;-62
2021/03/31 01:15:26;;;;;;;6.22;4.30;;;9.30;62.70;;;;;;6237857;23;20229;-63
2021/03/31 01:18:11;;;;;;;9.75;4.90;;;9.40;63.40;;;;;;6226821;23;20008;-63
2021/03/31 01:21:00;;;;;;;8.68;4.68;;;9.40;62.40;;;;;;6226844;23;20011;-62
2021/03/31 01:23:50;;;;;;;8.80;4.72;;;9.10;62.10;;;;;;6226429;23;20012;-62
2021/03/31 01:26:21;;;;;;;10.32;4.40;;;9.40;62.60;;;;;;6227435;23;20194;-62
2021/03/31 01:29:22;;;;;;;9.03;5.30;;;9.60;61.70;;;;;;6178224;23;20004;-62
2021/03/31 01:31:51;;;;;;;;;;;9.50;61.30;;;;;;6203085;23;20246;-62
2021/03/31 01:34:38;;;;;;;9.60;4.78;;;9.50;61.60;;;;;;6225718;23;19907;-62
2021/03/31 01:37:14;;;;;;;8.73;4.85;;;9.10;61.60;;;;;;6231758;23;20192;-62
2021/03/31 01:39:40;;;;;;;7.70;4.97;;;8.60;64.30;;;;;;6200461;23;20000;-62
2021/03/31 01:42:06;;;;;;;8.07;5.15;;;8.50;62.60;;;;;;6211843;23;20005;-62
2021/03/31 01:44:32;;;;;;;10.43;5.18;;;8.80;63.80;;;;;;6199450;23;20008;-62
2021/03/31 01:46:57;;;;;;;9.63;4.60;;;8.20;63.50;;;;;;6227979;23;20009;-62
2021/03/31 01:49:25;;;;;;;10.32;5.50;;;8.10;64.20;;;;;;6203825;23;20283;-62
2021/03/31 01:51:59;;;;;;;8.38;4.65;;;7.90;65.20;;;;;;6232486;23;20008;-62
2021/03/31 01:54:24;;;;;;;8.85;4.72;;;8.20;65.00;;;;;;6207847;23;20005;-62
2021/03/31 01:56:50;;;;;;;6.63;4.35;;;7.90;64.70;;;;;;6211584;23;20002;-62
2021/03/31 01:59:19;;;;;;;9.45;4.53;;;7.90;66.30;;;;;;6200751;23;20028;-62
2021/03/31 02:01:46;;;;;;;8.10;4.75;;;8.70;64.00;;;;;;6183571;23;20064;-62
2021/03/31 02:04:12;;;;;;;10.90;4.82;;;8.60;62.70;;;;;;6187520;23;20004;-62
2021/03/31 02:06:37;;;;;;;6.15;4.25;;;7.90;64.80;;;;;;6202186;23;20008;-62
2021/03/31 02:09:03;;;;;;;6.93;4.38;;;8.40;64.60;;;;;;6207647;23;20193;-62
2021/03/31 02:11:29;;;;;;;8.85;4.22;;;8.60;63.80;;;;;;6167786;23;20028;-62
2021/03/31 02:13:56;;;;;;;6.88;4.43;;;8.50;64.00;;;;;;6169235;23;20021;-62
2021/03/31 02:16:22;;;;;;;8.57;4.35;;;8.60;63.40;;;;;;6214855;23;20005;-62
2021/03/31 02:18:47;;;;;;;8.85;4.85;;;8.10;64.40;;;;;;6232727;23;20052;-62
2021/03/31 02:21:13;;;;;;;7.00;4.72;;;7.70;65.60;;;;;;6237818;23;20042;-62
2021/03/31 02:23:38;;;;;;;10.90;4.50;;;7.60;66.80;;;;;;6199293;23;20015;-62
2021/03/31 02:26:04;;;;;;;8.43;4.38;;;7.90;67.40;;;;;;6201304;23;20055;-62
2021/03/31 02:28:30;;;;;;;8.57;4.05;;;8.20;65.60;;;;;;6213663;23;20093;-62
2021/03/31 02:30:56;;;;;;;7.65;4.75;;;8.20;66.50;;;;;;6211117;23;20000;-62
2021/03/31 02:33:22;;;;;;;6.30;4.28;;;8.10;64.70;;;;;;6234281;23;20295;-62
2021/03/31 02:35:48;;;;;;;9.85;4.63;;;7.40;66.10;;;;;;6211326;23;20056;-62
2021/03/31 02:38:14;;;;;;;15.18;5.43;;;7.40;66.30;;;;;;6226867;23;20004;-62
2021/03/31 02:40:43;;;;;;;8.98;4.50;;;7.80;66.80;;;;;;6203079;23;20354;-62
2021/03/31 02:43:09;;;;;;;8.77;4.15;;;7.90;66.80;;;;;;6204921;23;20304;-62
2021/03/31 02:45:35;;;;;;;9.70;4.70;;;8.40;64.90;;;;;;6206576;23;20008;-62
2021/03/31 02:48:01;;;;;;;10.68;4.13;;;8.50;63.90;;;;;;6175190;23;20283;-62
2021/03/31 02:50:28;;;;;;;8.18;4.10;;;8.80;63.40;;;;;;6199387;23;20021;-62
2021/03/31 02:52:53;;;;;;;10.90;4.45;;;8.30;62.80;;;;;;6180250;23;20009;-62
2021/03/31 02:55:21;;;;;;;7.03;4.25;;;8.20;64.80;;;;;;6214225;23;20020;-62
2021/03/31 02:57:47;;;;;;;7.40;4.18;;;8.10;64.30;;;;;;6232729;23;20005;-62
2021/03/31 03:00:13;;;;;;;10.82;4.15;;;8.30;64.30;;;;;;6210359;23;20047;-62
2021/03/31 03:02:39;;;;;;;8.77;4.32;;;8.40;63.80;;;;;;6197951;23;20211;-62
2021/03/31 03:05:09;;;;;;;9.80;4.70;;;7.60;64.30;;;;;;6227077;23;20058;-62
2021/03/31 03:07:34;;;;;;;9.07;4.38;;;7.50;65.20;;;;;;6198470;23;20030;-62
2021/03/31 03:10:01;;;;;;;9.38;4.95;;;7.40;65.90;;;;;;6204529;23;20047;-62
2021/03/31 03:12:26;;;;;;;12.43;4.40;;;7.40;64.70;;;;;;6198033;23;20072;-62
2021/03/31 03:14:52;;;;;;;8.98;3.97;;;7.60;66.60;;;;;;6210333;23;19997;-62
2021/03/31 03:17:18;;;;;;;7.53;4.00;;;8.10;64.90;;;;;;6198353;23;20000;-62
2021/03/31 03:19:43;;;;;;;10.60;4.63;;;8.10;64.00;;;;;;6227677;23;20012;-62
2021/03/31 03:22:09;;;;;;;7.18;4.35;;;7.70;64.60;;;;;;6230776;23;20004;-62
2021/03/31 03:24:35;;;;;;;11.52;4.70;;;7.70;65.40;;;;;;6206626;23;20004;-62
2021/03/31 03:27:01;;;;;;;8.75;4.20;;;7.40;64.60;;;;;;6210488;23;20183;-62
2021/03/31 03:29:26;;;;;;;12.35;4.28;;;7.10;66.60;;;;;;6199078;23;20004;-62
2021/03/31 03:31:53;;;;;;;5.97;3.78;;;6.70;66.80;;;;;;6201331;23;20320;-62
2021/03/31 03:34:18;;;;;;;9.23;4.68;;;6.80;67.70;;;;;;6189773;23;20085;-62
2021/03/31 03:36:44;;;;;;;15.40;4.50;;;7.10;68.20;;;;;;6208846;23;20004;-62
2021/03/31 03:39:10;;;;;;;6.95;4.05;;;7.00;66.70;;;;;;6210116;23;20353;-62
2021/03/31 03:41:35;;;;;;;11.60;5.35;;;7.30;66.60;;;;;;6198125;23;20009;-62
2021/03/31 03:44:01;;;;;;;10.40;3.63;;;7.10;65.40;;;;;;6227334;23;20024;-62
2021/03/31 03:46:31;;;;;;;12.93;4.25;;;6.90;67.50;;;;;;6213813;23;20009;-62
2021/03/31 03:48:58;;;;;;;12.53;3.70;;;6.90;66.40;;;;;;6211206;23;20001;-62
2021/03/31 03:51:24;;;;;;;5.95;3.53;;;7.40;66.90;;;;;;6207579;23;20004;-62
2021/03/31 03:53:50;;;;;;;7.18;3.70;;;7.80;65.30;;;;;;6210348;23;20001;-62
2021/03/31 03:56:16;;;;;;;8.52;4.10;;;7.20;64.30;;;;;;6226061;23;20008;-62
2021/03/31 03:58:41;;;;;;;8.48;3.67;;;7.10;64.60;;;;;;6228111;23;20355;-62
2021/03/31 04:01:07;;;;;;;8.80;4.22;;;6.90;66.10;;;;;;6230300;23;20177;-62
2021/03/31 04:03:32;;;;;;;9.50;4.20;;;6.40;66.50;;;;;;6232613;23;20059;-62
2021/03/31 04:05:58;;;;;;;10.65;3.90;;;6.60;67.80;;;;;;6200069;23;19996;-62
2021/03/31 04:08:23;;;;;;;16.00;3.83;;;7.30;66.50;;;;;;6198336;23;20184;-62
2021/03/31 04:10:53;;;;;;;8.90;3.70;;;7.70;65.60;;;;;;6226998;23;20099;-62
2021/03/31 04:13:19;;;;;;;12.98;3.92;;;7.80;64.60;;;;;;6202973;23;20318;-62
2021/03/31 04:15:46;;;;;;;13.32;3.95;;;7.50;64.80;;;;;;6197931;23;20195;-62
2021/03/31 04:18:13;;;;;;;7.50;4.00;;;7.80;64.50;;;;;;6200090;23;20342;-62
2021/03/31 04:20:39;;;;;;;8.52;3.75;;;7.90;63.30;;;;;;6167856;23;20013;-62
2021/03/31 04:23:05;;;;;;;8.32;3.75;;;7.90;63.70;;;;;;6188819;23;20319;-62
2021/03/31 04:25:31;;;;;;;8.75;3.35;;;7.80;63.00;;;;;;6197016;23;20331;-62
2021/03/31 04:27:57;;;;;;;7.78;3.90;;;7.90;63.50;;;;;;6210002;23;20020;-62
2021/03/31 04:30:22;;;;;;;8.63;3.55;;;7.90;63.60;;;;;;6206903;23;20020;-62
2021/03/31 04:32:49;;;;;;;11.48;4.30;;;8.00;63.20;;;;;;6236277;23;20008;-62
2021/03/31 04:35:19;;;;;;;10.77;3.13;;;7.40;64.30;;;;;;6225559;23;20008;-62
2021/03/31 04:37:45;;;;;;;8.75;3.25;;;7.50;64.80;;;;;;6227517;23;20009;-62
2021/03/31 04:40:12;;;;;;;8.15;3.55;;;7.30;65.20;;;;;;6224157;23;20005;-62
2021/03/31 04:42:38;;;;;;;6.85;3.20;;;7.10;65.60;;;;;;6231931;23;20055;-62
2021/03/31 04:45:05;;;;;;;9.25;3.55;;;7.30;65.20;;;;;;6236375;23;20276;-62
2021/03/31 04:47:32;;;;;;;7.15;3.03;;;7.40;63.70;;;;;;6224314;23;20005;-62
2021/03/31 04:49:58;;;;;;;7.32;3.40;;;7.20;65.50;;;;;;6197713;23;20004;-62
2021/03/31 04:52:23;;;;;;;9.00;3.17;;;6.60;65.50;;;;;;6228933;23;20070;-62
2021/03/31 04:54:49;;;;;;;8.88;3.40;;;6.50;66.50;;;;;;6231062;23;20043;-62
2021/03/31 04:57:14;;;;;;;10.00;3.30;;;6.30;67.30;;;;;;6233730;23;20007;-62
2021/03/31 04:59:40;;;;;;;9.20;3.38;;;7.00;67.80;;;;;;6236009;23;20031;-62
2021/03/31 05:02:05;;;;;;;8.52;3.42;;;7.40;65.70;;;;;;6225838;23;20020;-62
2021/03/31 05:04:31;;;;;;;7.82;3.28;;;7.60;65.10;;;;;;6228067;23;20014;-61
2021/03/31 05:06:56;;;;;;;7.13;3.10;;;6.90;64.30;;;;;;6223792;23;20035;-61
2021/03/31 05:09:22;;;;;;;12.13;3.45;;;6.90;65.90;;;;;;6233201;23;20001;-61
2021/03/31 05:11:47;;;;;;;6.90;3.15;;;7.20;65.10;;;;;;6236549;23;20035;-60
2021/03/31 05:14:13;;;;;;;11.80;4.25;;;7.30;64.40;;;;;;6227582;23;20203;-62
2021/03/31 05:16:38;;;;;;;5.93;3.28;;;7.60;64.30;;;;;;6229733;23;20296;-61
2021/03/31 05:19:04;;;;;;;11.80;4.10;;;7.60;63.80;;;;;;6231712;23;20304;-61
2021/03/31 05:21:29;;;;;;;8.93;4.18;;;7.80;63.40;;;;;;6234260;23;20056;-61
2021/03/31 05:23:55;;;;;;;11.68;3.70;;;7.30;62.60;;;;;;6238151;23;20016;-62
2021/03/31 05:26:21;;;;;;;13.40;4.30;;;6.80;65.90;;;;;;6227019;23;20059;-62
2021/03/31 05:28:46;;;;;;;9.07;4.20;;;6.40;65.70;;;;;;6228667;23;20336;-61
2021/03/31 05:31:12;;;;;;;12.55;4.30;;;6.40;66.80;;;;;;6231147;23;20311;-62
2021/03/31 05:33:37;;;;;;;10.48;3.80;;;6.40;66.50;;;;;;6233307;23;20008;-61
2021/03/31 05:36:03;;;;;;;13.60;7.15;;;6.30;67.70;;;;;;6237380;23;20004;-61
2021/03/31 05:38:28;;;;;;;9.63;5.03;;;6.30;67.10;;;;;;6225677;23;20043;-61
2021/03/31 05:41:00;;;;;;;7.75;4.35;;;6.10;67.80;;;;;;6227893;23;20015;-62
2021/03/31 05:43:25;;;;;;;11.57;4.10;;;6.20;68.30;;;;;;6230011;23;20312;-61
2021/03/31 05:45:53;;;;;;;12.70;4.18;;;6.50;68.10;;;;;;6233139;23;20005;-61
2021/03/31 05:48:18;;;;;;;13.40;4.13;;;7.20;67.00;;;;;;6208948;23;20001;-61
2021/03/31 05:50:44;;;;;;;14.85;4.45;;;7.40;65.60;;;;;;6237400;23;19997;-61
2021/03/31 05:53:09;;;;;;;15.38;5.03;;;7.10;65.70;;;;;;6227099;23;20030;-61
2021/03/31 05:55:35;;;;;;;18.52;4.63;;;6.90;67.50;;;;;;6229291;23;20063;-61
2021/03/31 05:58:00;;;;;;;15.18;4.43;;;7.30;67.10;;;;;;6231585;23;20004;-61
2021/03/31 06:00:27;;;;;;;13.48;4.30;;;7.50;66.20;;;;;;6207395;23;20192;-61
2021/03/31 06:02:53;;;;;;;12.40;4.03;;;7.90;64.50;;;;;;6237312;23;20001;-61
2021/03/31 06:05:18;;;;;;;20.10;4.30;;;7.60;64.20;;;;;;6198728;23;20116;-61
2021/03/31 06:07:48;;;;;;;13.95;4.22;;;7.70;65.10;;;;;;6172304;23;20009;-61
2021/03/31 06:10:18;;;;;;;18.83;4.47;;;7.80;65.30;;;;;;6200829;23;20391;-61
2021/03/31 06:12:47;;;;;;;10.55;4.20;;;8.10;64.40;;;;;;6175307;23;20310;-61
2021/03/31 06:15:22;;;;;;;15.02;4.18;;;7.90;65.20;;;;;;6237007;23;20004;-61
2021/03/31 06:17:55;;;;;;;16.10;4.20;;;8.20;65.30;;;;;;6226021;23;20008;-61
2021/03/31 06:20:56;;;;;;;12.05;4.05;;;8.40;64.90;;;;;;6225749;23;20008;-61
2021/03/31 06:26:28;;;;;;;14.93;4.10;;;8.90;62.30;;;;;;6226533;23;20192;-61
2021/03/31 06:28:55;;;;;;;13.90;4.18;;;9.10;61.40;;;;;;6227325;23;20273;-61
2021/03/31 06:31:20;;;;;;;12.68;3.75;;;9.30;60.90;;;;;;6230085;23;20012;-62
2021/03/31 06:33:47;;;;;;;9.10;3.95;;;9.40;60.20;;;;;;6232966;23;20004;-59
2021/03/31 06:36:13;;;;;;;12.70;3.42;;;9.70;60.70;;;;;;6236864;23;20001;-59
2021/03/31 06:38:46;;;;;;;11.95;3.70;;;10.10;59.00;;;;;;6224500;23;20027;-59
2021/03/31 06:41:35;;;;;;;16.95;3.35;;;10.50;57.40;;;;;;6225170;23;20024;-59
2021/03/31 06:44:26;;;;;;;13.55;3.38;;;11.00;55.70;;;;;;6227441;23;20009;-59
2021/03/31 06:46:57;;;;;;;9.90;3.55;;;11.60;53.80;;;;;;6227502;23;20004;-59
2021/03/31 06:49:23;;;;;;;8.48;3.70;;;12.40;51.90;;;;;;6159302;23;20016;-59
2021/03/31 06:51:48;;;;;;;7.93;3.58;;;13.10;49.00;;;;;;6201169;23;20047;-59
2021/03/31 06:54:18;;;;;;;12.70;3.70;;;13.80;47.10;;;;;;6178342;23;20005;-58
2021/03/31 06:57:03;;;;;;;14.30;3.37;;;14.60;45.10;;;;;;6236155;23;20063;-63
2021/03/31 06:59:32;;;;;;;10.65;2.90;;;15.30;42.50;;;;;;6224128;23;20012;-60
2021/03/31 07:01:58;;;;;;;7.70;2.67;;;15.60;42.80;;;;;;6224708;23;20192;-61
2021/03/31 07:04:25;;;;;;;9.70;3.15;;;16.80;40.70;;;;;;6225084;23;20039;-60
2021/03/31 07:07:08;;;;;;;11.63;3.20;;;18.60;35.90;;;;;;6224659;23;20072;-60
2021/03/31 07:09:40;;;;;;;12.48;3.58;;;20.50;32.00;;;;;;6233160;23;20055;-60
2021/03/31 07:12:19;;;;;;;12.63;3.50;;;21.80;31.40;;;;;;6209970;23;20011;-60
2021/03/31 07:14:46;;;;;;;11.15;3.25;;;23.10;28.20;;;;;;6225760;23;20012;-61
2021/03/31 07:17:19;;;;;;;9.25;3.03;;;23.90;28.00;;;;;;6226241;23;20005;-61
2021/03/31 07:19:44;;;;;;;10.00;3.47;;;24.80;25.70;;;;;;6202770;23;20072;-61
2021/03/31 07:22:10;;;;;;;17.98;3.90;;;25.90;25.30;;;;;;6203782;23;20363;-61
2021/03/31 07:24:36;;;;;;;8.65;3.00;;;26.50;23.80;;;;;;6148910;23;20241;-61
2021/03/31 07:27:01;;;;;;;6.90;3.25;;;27.30;23.80;;;;;;6236901;23;20041;-61
2021/03/31 07:29:27;;;;;;;10.15;3.10;;;27.60;21.90;;;;;;6225288;23;20019;-61
2021/03/31 07:31:52;;;;;;;13.70;3.25;;;28.50;22.20;;;;;;6228669;23;20009;-61
2021/03/31 07:34:28;;;;;;;13.95;3.10;;;29.00;21.50;;;;;;6204017;23;20031;-61
2021/03/31 07:36:55;;;;;;;10.00;2.67;;;29.40;21.10;;;;;;6196632;23;20142;-60
2021/03/31 07:39:24;;;;;;;12.57;3.40;;;30.00;21.00;;;;;;6154252;23;19997;-60
2021/03/31 07:41:50;;;;;;;18.02;3.05;;;30.30;20.80;;;;;;6210832;23;20004;-61
2021/03/31 07:44:22;;;;;;;9.95;3.13;;;30.50;19.40;;;;;;6199579;23;20008;-61
2021/03/31 07:46:48;;;;;;;9.75;2.75;;;31.60;18.30;;;;;;6227219;23;20024;-61
2021/03/31 07:49:13;;;;;;;8.65;2.28;;;31.70;18.00;;;;;;6197946;23;20005;-62
2021/03/31 07:51:52;;;;;;;13.75;2.90;;;27.60;22.80;;;;;;6206349;23;20008;-61
2021/03/31 07:54:17;;;;;;;10.32;2.22;;;25.60;25.90;;;;;;6202606;23;20000;-61
2021/03/31 07:56:43;;;;;;;11.50;2.50;;;24.20;26.20;;;;;;6194645;23;20011;-61
2021/03/31 07:59:16;;;;;;;5.97;2.50;;;23.70;28.40;;;;;;6221148;23;20008;-61
2021/03/31 08:01:49;;;;;;;6.47;2.30;;;25.00;25.50;;;;;;6227533;23;20036;-62
2021/03/31 08:04:16;;;;;;;8.20;2.35;;;28.20;22.10;;;;;;6178430;23;20004;-61
2021/03/31 08:06:43;;;;;;;5.18;2.50;;;29.70;21.00;;;;;;6232022;23;20005;-61
2021/03/31 08:09:19;;;;;;;9.05;2.35;;;31.20;18.50;;;;;;6200151;23;20107;-61
2021/03/31 08:11:48;;;;;;;6.53;2.28;;;32.10;17.70;;;;;;6225214;23;20009;-61
2021/03/31 08:14:15;;;;;;;7.22;1.92;;;33.10;15.90;;;;;;6226282;23;20009;-61
2021/03/31 08:16:46;;;;;;;9.48;1.80;;;33.20;16.20;;;;;;6228017;23;20047;-61
2021/03/31 08:19:16;;;;;;;5.57;1.23;;;31.10;16.90;;;;;;6230232;23;19997;-62
2021/03/31 08:21:43;;;;;;;3.33;1.20;;;28.20;19.40;;;;;;6232545;23;20008;-62
2021/03/31 08:24:09;;;;;;;6.38;1.60;;;26.10;20.90;;;;;;6236233;23;20099;-62
2021/03/31 08:26:45;;;;;;;5.60;1.60;;;24.40;23.50;;;;;;6197393;23;20013;-63
2021/03/31 08:29:17;;;;;;;7.18;1.88;;;23.30;24.90;;;;;;6225952;23;20027;-63
2021/03/31 08:31:43;;;;;;;5.97;1.80;;;22.10;25.80;;;;;;6227563;23;20024;-62
2021/03/31 08:34:09;;;;;;;6.57;1.60;;;21.50;26.70;;;;;;6229785;23;20192;-62
2021/03/31 08:36:38;;;;;;;8.07;1.67;;;21.00;27.70;;;;;;6232101;23;20184;-62
2021/03/31 08:39:05;;;;;;;7.22;2.00;;;20.80;29.10;;;;;;6235911;23;20052;-62
2021/03/31 08:41:31;;;;;;;7.97;1.95;;;20.80;28.30;;;;;;6224879;23;20028;-62
2021/03/31 08:44:12;;;;;;;9.73;2.05;;;20.60;29.10;;;;;;6226738;23;20023;-62
2021/03/31 08:46:38;;;;;;;5.07;1.52;;;20.40;29.20;;;;;;6228424;23;20000;-62
2021/03/31 08:49:03;;;;;;;6.10;1.65;;;20.30;30.50;;;;;;6232038;23;20001;-60
2021/03/31 08:51:29;;;;;;;7.47;1.50;;;20.30;30.30;;;;;;6234735;23;20007;-60
2021/03/31 08:54:01;;;;;;;4.22;1.63;;;20.20;30.00;;;;;;6212099;23;20000;-60
2021/03/31 08:56:27;;;;;;;4.78;1.58;;;20.30;30.20;;;;;;6200303;23;20004;-60
2021/03/31 08:58:55;;;;;;;5.93;1.50;;;20.00;30.10;;;;;;6225567;23;20001;-61
2021/03/31 09:01:31;;;;;;;4.50;1.83;;;19.90;29.70;;;;;;6231014;23;20007;-61
2021/03/31 09:04:18;;;;;;;3.47;1.48;;;20.10;30.90;;;;;;6232344;23;19997;-60
2021/03/31 09:06:43;;;;;;;6.70;1.75;;;20.40;29.80;;;;;;6232858;23;19993;-60
2021/03/31 09:09:09;;;;;;;6.22;1.83;;;20.30;29.10;;;;;;6237843;23;20042;-61
2021/03/31 09:11:34;;;;;;;9.38;1.83;;;20.50;30.40;;;;;;6225570;23;20279;-60
2021/03/31 09:14:19;;;;;;;6.97;1.70;;;20.50;29.00;;;;;;6227586;23;20017;-60
2021/03/31 09:16:52;;;;;;;6.78;1.63;;;20.60;29.40;;;;;;6231190;23;20060;-61
2021/03/31 09:19:17;;;;;;;9.80;1.98;;;20.90;29.20;;;;;;6206003;23;20004;-60
2021/03/31 09:21:43;;;;;;;8.65;1.58;;;21.10;28.40;;;;;;6234504;23;20004;-60
2021/03/31 09:24:13;;;;;;;10.52;2.20;;;21.20;28.60;;;;;;6212433;23;20016;-60
2021/03/31 09:26:39;;;;;;;10.20;2.00;;;21.10;29.10;;;;;;6226463;23;20073;-63
2021/03/31 09:29:17;;;;;;;7.82;1.73;;;21.00;29.70;;;;;;6201812;23;20027;-63
2021/03/31 09:31:43;;;;;;;12.43;1.92;;;21.00;29.90;;;;;;6229851;23;20005;-63
2021/03/31 09:34:09;;;;;;;8.80;2.05;;;20.90;30.20;;;;;;6231579;23;20004;-63
2021/03/31 09:36:35;;;;;;;11.13;2.22;;;21.10;29.90;;;;;;6174163;23;20004;-63
2021/03/31 09:39:01;;;;;;;5.57;1.42;;;21.10;30.30;;;;;;6237570;23;20027;-64
2021/03/31 09:41:27;;;;;;;11.63;1.90;;;21.20;30.00;;;;;;6226446;23;20012;-64
2021/03/31 09:43:53;;;;;;;12.85;2.13;;;21.20;29.80;;;;;;6177026;23;20011;-64
2021/03/31 09:46:23;;;;;;;10.70;2.05;;;21.20;27.60;;;;;;6204223;23;20005;-63
2021/03/31 09:48:50;;;;;;;7.60;1.93;;;21.20;28.60;;;;;;6232613;23;20001;-63
2021/03/31 09:51:15;;;;;;;9.23;1.60;;;21.50;29.50;;;;;;6235195;23;20016;-63
2021/03/31 09:53:41;;;;;;;8.60;2.20;;;21.60;30.10;;;;;;6201105;23;20011;-64
2021/03/31 09:56:09;;;;;;;9.07;2.25;;;21.80;29.70;;;;;;6201427;23;20047;-64
2021/03/31 09:58:35;;;;;;;6.40;1.60;;;21.90;30.20;;;;;;6202550;23;20016;-64
2021/03/31 10:01:01;;;;;;;5.50;1.80;;;21.80;29.40;;;;;;6195229;23;20001;-64
2021/03/31 10:03:29;;;;;;;5.72;1.65;;;21.90;29.60;;;;;;6180631;23;20039;-63
2021/03/31 10:05:54;;;;;;;8.60;2.05;;;22.00;28.50;;;;;;6237885;23;20000;-64
2021/03/31 10:08:21;;;;;;;3.95;1.50;;;22.00;27.70;;;;;;6200359;23;20019;-64
2021/03/31 10:10:49;;;;;;;10.32;2.40;;;22.10;28.20;;;;;;6182217;23;20009;-63
2021/03/31 10:13:15;;;;;;;9.20;2.05;;;22.30;27.50;;;;;;6199847;23;20076;-64
2021/03/31 10:15:48;;;;;;;8.07;2.10;;;22.40;29.00;;;;;;6208398;23;20051;-64
2021/03/31 10:18:14;;;;;;;9.75;2.25;;;22.30;29.20;;;;;;6236589;23;20000;-64
2021/03/31 10:20:47;;;;;;;7.00;2.08;;;22.30;27.60;;;;;;6198776;23;20100;-65
2021/03/31 10:23:30;;;;;;;6.95;2.35;;;22.50;29.10;;;;;;6226105;23;20008;-64
2021/03/31 10:26:24;;;;;;;8.20;2.13;;;22.80;27.70;;;;;;6224506;23;20015;-64
2021/03/31 10:28:50;;;;;;;8.63;2.25;;;22.90;27.60;;;;;;6227712;23;20005;-64
2021/03/31 10:31:20;;;;;;;9.77;2.50;;;23.00;27.30;;;;;;6228061;23;20092;-64
2021/03/31 10:33:46;;;;;;;6.70;2.20;;;23.00;27.40;;;;;;6232291;23;20009;-64
2021/03/31 10:36:13;;;;;;;5.95;2.35;;;23.00;26.50;;;;;;6210240;23;20008;-64
2021/03/31 10:38:52;;;;;;;5.93;2.08;;;23.00;26.80;;;;;;6199401;23;20013;-64
2021/03/31 10:41:40;;;;;;;7.55;2.28;;;23.10;27.50;;;;;;6226212;23;20032;-63
2021/03/31 10:49:43;;;;;;;7.10;2.25;;;23.30;27.40;;;;;;6224954;23;19904;-65
2021/03/31 10:52:18;;;;;;;12.10;3.10;;;23.30;26.60;;;;;;6208615;23;20012;-64
2021/03/31 10:54:44;;;;;;;5.70;2.30;;;23.40;26.10;;;;;;6199424;23;20308;-64
2021/03/31 10:57:12;;;;;;;9.68;3.10;;;23.40;26.80;;;;;;6206989;23;20000;-64
2021/03/31 10:59:38;;;;;;;10.98;2.72;;;23.50;26.70;;;;;;6225645;23;20004;-63
2021/03/31 11:02:03;;;;;;;10.98;3.10;;;23.60;27.40;;;;;;6226738;23;20071;-63
2021/03/31 11:04:29;;;;;;;11.48;3.03;;;23.80;26.70;;;;;;6228992;23;20330;-64
2021/03/31 11:06:55;;;;;;;10.30;2.80;;;23.80;28.40;;;;;;6231579;23;20323;-63
2021/03/31 11:09:22;;;;;;;8.50;3.47;;;23.80;26.40;;;;;;6233254;23;20040;-62
2021/03/31 11:11:48;;;;;;;7.05;2.88;;;23.90;26.90;;;;;;6236893;23;20012;-62
2021/03/31 11:14:13;;;;;;;13.25;3.60;;;24.00;27.00;;;;;;6226530;23;20009;-63
2021/03/31 11:16:46;;;;;;;7.70;3.20;;;24.10;26.20;;;;;;6228613;23;20005;-62
2021/03/31 11:26:47;;;;;;;11.57;3.58;;;24.20;26.90;;;;;;6225339;23;20005;-60
2021/03/31 11:29:12;;;;;;;11.13;3.60;;;24.20;26.10;;;;;;6201350;23;20027;-65
2021/03/31 11:31:39;;;;;;;16.15;3.75;;;24.40;26.00;;;;;;6215991;23;20279;-62
2021/03/31 11:34:04;;;;;;;15.02;4.05;;;24.60;26.50;;;;;;6204247;23;20024;-66
2021/03/31 11:36:30;;;;;;;7.40;3.65;;;24.60;26.60;;;;;;6202450;23;20004;-63
2021/03/31 11:38:56;;;;;;;13.45;4.28;;;24.70;25.50;;;;;;6170475;23;20001;-64
2021/03/31 11:41:21;;;;;;;8.70;3.95;;;24.60;25.80;;;;;;6222735;23;20001;-65
2021/03/31 11:43:47;;;;;;;12.05;4.40;;;24.40;25.40;;;;;;6227617;23;20068;-62
2021/03/31 11:46:12;;;;;;;9.52;3.53;;;24.50;25.90;;;;;;6230128;23;19996;-63
2021/03/31 11:48:38;;;;;;;9.43;3.70;;;24.70;24.00;;;;;;6232514;23;20001;-66
2021/03/31 11:51:04;;;;;;;6.97;2.95;;;24.90;24.10;;;;;;6236354;23;20000;-66
2021/03/31 11:53:30;;;;;;;6.53;3.22;;;24.80;23.10;;;;;;6224844;23;20008;-61
2021/03/31 11:55:58;;;;;;;9.75;3.38;;;24.90;24.30;;;;;;6226981;23;20012;-66
2021/03/31 11:58:24;;;;;;;7.45;3.08;;;24.80;25.00;;;;;;6228738;23;20191;-62
2021/03/31 12:00:49;;;;;;;5.47;3.30;;;25.00;25.50;;;;;;6231446;23;20008;-63
2021/03/31 12:03:15;;;;;;;6.07;3.38;;;24.90;24.20;;;;;;6233456;23;20056;-63
2021/03/31 12:05:41;;;;;;;7.75;3.08;;;25.00;24.70;;;;;;6235884;23;20001;-62
2021/03/31 12:08:06;;;;;;;8.68;3.95;;;25.00;24.60;;;;;;6226100;23;20012;-62
2021/03/31 12:10:32;;;;;;;7.25;3.53;;;25.10;24.10;;;;;;6228918;23;20009;-64
2021/03/31 12:12:57;;;;;;;15.85;4.97;;;25.20;24.60;;;;;;6230586;23;20024;-58
2021/03/31 12:15:23;;;;;;;13.25;4.10;;;25.30;25.30;;;;;;6233088;23;20024;-58
2021/03/31 12:17:48;;;;;;;12.60;5.03;;;25.30;25.00;;;;;;6236376;23;19996;-57
2021/03/31 12:20:16;;;;;;;12.40;5.40;;;25.50;26.20;;;;;;6197211;23;20280;-60
2021/03/31 12:22:42;;;;;;;17.05;4.50;;;25.50;26.00;;;;;;6225257;23;20005;-62
2021/03/31 12:25:08;;;;;;;10.15;4.55;;;25.60;25.90;;;;;;6231818;23;20000;-62
2021/03/31 12:27:34;;;;;;;17.70;5.13;;;25.70;25.60;;;;;;6199241;23;20063;-62
2021/03/31 12:30:05;;;;;;;9.38;4.78;;;25.70;25.00;;;;;;6238320;23;20091;-62
2021/03/31 12:32:30;;;;;;;11.20;4.70;;;25.50;24.80;;;;;;6197053;23;20310;-62
2021/03/31 12:34:56;;;;;;;9.25;4.68;;;25.60;24.20;;;;;;6220172;23;20005;-63
2021/03/31 12:37:23;;;;;;;14.30;4.60;;;25.70;23.30;;;;;;6231531;23;20060;-63
2021/03/31 12:39:49;;;;;;;9.18;4.50;;;25.60;24.40;;;;;;6233009;23;19997;-63
2021/03/31 12:42:14;;;;;;;8.50;3.97;;;25.60;24.30;;;;;;6235788;23;20000;-61
2021/03/31 12:44:40;;;;;;;11.85;4.72;;;25.60;24.80;;;;;;6237739;23;20299;-59
2021/03/31 12:47:06;;;;;;;10.93;4.20;;;25.80;24.20;;;;;;6228301;23;20064;-60
2021/03/31 12:49:31;;;;;;;7.90;4.25;;;25.80;25.30;;;;;;6230301;23;20011;-60
2021/03/31 12:52:04;;;;;;;9.38;4.75;;;25.80;25.20;;;;;;6232401;23;20016;-60
2021/03/31 12:56:55;;;;;;;12.10;5.13;;;25.80;24.90;;;;;;6201782;23;19996;-60
2021/03/31 12:59:21;;;;;;;14.32;5.63;;;25.90;24.90;;;;;;6227155;23;20317;-60
2021/03/31 13:02:05;;;;;;;9.15;4.70;;;25.80;24.40;;;;;;6201965;23;20016;-60
2021/03/31 13:04:49;;;;;;;16.15;5.32;;;25.90;24.90;;;;;;6215992;23;20236;-60
2021/03/31 13:07:35;;;;;;;11.40;4.93;;;26.00;25.10;;;;;;6225148;23;20020;-60
2021/03/31 13:10:20;;;;;;;16.02;4.95;;;25.90;25.30;;;;;;6230652;23;20204;-60
2021/03/31 13:16:08;;;;;;;13.02;4.97;;;25.90;24.20;;;;;;6232255;23;20015;-60